Terminal Aerodrome Forecast
Issued by NWS Cleveland, OH

Home | Current Version | Previous Version | Text Only | Print | Product List | Glossary Off
Versions: 1 2 3 4 5 6 7 8 9 10 11 12 13 14 15 16 17 18

654
FTUS41 KCLE 292327
TAFERI
TAF
KERI 292327Z 3000/3024 17005KT P6SM OVC100
     FM301100 15010KT P6SM VCSH SCT025 OVC045
      TEMPO 3013/3017 5SM -SHRA OVC025
     FM301700 18010KT P6SM VCSH BKN025 OVC045=

USA.gov is the U.S. government's official web portal to all federal, state and local government web resources and services.